sensor_id;sensor_type;location;lat;lon;timestamp;P1;durP1;ratioP1;P2;durP2;ratioP2
577;SDS011;275;48.492;9.214;2024-01-27T00:01:47;13.25;;;9.75;;
577;SDS011;275;48.492;9.214;2024-01-27T00:04:13;12.65;;;8.38;;
577;SDS011;275;48.492;9.214;2024-01-27T00:06:40;8.70;;;7.80;;
577;SDS011;275;48.492;9.214;2024-01-27T00:09:07;10.85;;;9.02;;
577;SDS011;275;48.492;9.214;2024-01-27T00:11:35;10.45;;;8.40;;
577;SDS011;275;48.492;9.214;2024-01-27T00:14:02;9.77;;;8.30;;
577;SDS011;275;48.492;9.214;2024-01-27T00:16:29;11.88;;;9.73;;
577;SDS011;275;48.492;9.214;2024-01-27T00:18:56;8.77;;;7.35;;
577;SDS011;275;48.492;9.214;2024-01-27T00:21:22;10.35;;;7.28;;
577;SDS011;275;48.492;9.214;2024-01-27T00:23:49;9.93;;;7.30;;
577;SDS011;275;48.492;9.214;2024-01-27T00:26:16;10.13;;;7.75;;
577;SDS011;275;48.492;9.214;2024-01-27T00:28:44;9.07;;;6.40;;
577;SDS011;275;48.492;9.214;2024-01-27T00:31:11;7.82;;;6.68;;
577;SDS011;275;48.492;9.214;2024-01-27T00:33:38;9.55;;;7.10;;
577;SDS011;275;48.492;9.214;2024-01-27T00:36:05;12.35;;;8.95;;
577;SDS011;275;48.492;9.214;2024-01-27T00:38:32;10.02;;;7.45;;
577;SDS011;275;48.492;9.214;2024-01-27T00:40:59;10.00;;;8.35;;
577;SDS011;275;48.492;9.214;2024-01-27T00:43:25;10.18;;;8.00;;
577;SDS011;275;48.492;9.214;2024-01-27T00:45:54;7.95;;;7.07;;
577;SDS011;275;48.492;9.214;2024-01-27T00:48:21;14.27;;;9.23;;
577;SDS011;275;48.492;9.214;2024-01-27T00:50:48;9.63;;;6.63;;
577;SDS011;275;48.492;9.214;2024-01-27T00:53:14;8.55;;;5.68;;
577;SDS011;275;48.492;9.214;2024-01-27T00:55:41;8.75;;;6.40;;
577;SDS011;275;48.492;9.214;2024-01-27T00:58:08;7.88;;;6.53;;
577;SDS011;275;48.492;9.214;2024-01-27T01:00:35;10.35;;;7.03;;
577;SDS011;275;48.492;9.214;2024-01-27T01:03:03;9.98;;;6.40;;
577;SDS011;275;48.492;9.214;2024-01-27T01:05:30;10.27;;;7.47;;
577;SDS011;275;48.492;9.214;2024-01-27T01:07:57;6.63;;;5.95;;
577;SDS011;275;48.492;9.214;2024-01-27T01:10:24;6.57;;;5.43;;
577;SDS011;275;48.492;9.214;2024-01-27T01:12:51;7.85;;;5.60;;
577;SDS011;275;48.492;9.214;2024-01-27T01:15:18;7.28;;;5.03;;
577;SDS011;275;48.492;9.214;2024-01-27T01:17:45;7.03;;;4.75;;
577;SDS011;275;48.492;9.214;2024-01-27T01:20:13;6.90;;;5.25;;
577;SDS011;275;48.492;9.214;2024-01-27T01:22:40;7.35;;;4.90;;
577;SDS011;275;48.492;9.214;2024-01-27T01:25:07;9.10;;;6.05;;
577;SDS011;275;48.492;9.214;2024-01-27T01:27:34;7.43;;;5.40;;
577;SDS011;275;48.492;9.214;2024-01-27T01:30:00;6.88;;;4.90;;
577;SDS011;275;48.492;9.214;2024-01-27T01:32:27;7.05;;;4.90;;
577;SDS011;275;48.492;9.214;2024-01-27T01:34:54;7.50;;;5.20;;
577;SDS011;275;48.492;9.214;2024-01-27T01:37:22;8.43;;;4.80;;
577;SDS011;275;48.492;9.214;2024-01-27T01:39:49;6.80;;;4.47;;
577;SDS011;275;48.492;9.214;2024-01-27T01:42:16;7.20;;;5.05;;
577;SDS011;275;48.492;9.214;2024-01-27T01:44:43;7.70;;;4.95;;
577;SDS011;275;48.492;9.214;2024-01-27T01:47:10;6.85;;;5.55;;
577;SDS011;275;48.492;9.214;2024-01-27T01:49:37;7.57;;;4.72;;
577;SDS011;275;48.492;9.214;2024-01-27T01:52:04;6.75;;;5.38;;
577;SDS011;275;48.492;9.214;2024-01-27T01:54:33;8.68;;;5.30;;
577;SDS011;275;48.492;9.214;2024-01-27T01:57:00;7.05;;;5.25;;
577;SDS011;275;48.492;9.214;2024-01-27T01:59:28;7.32;;;5.75;;
577;SDS011;275;48.492;9.214;2024-01-27T02:01:54;10.15;;;5.43;;
577;SDS011;275;48.492;9.214;2024-01-27T02:04:21;8.02;;;5.88;;
577;SDS011;275;48.492;9.214;2024-01-27T02:06:48;5.75;;;5.15;;
577;SDS011;275;48.492;9.214;2024-01-27T02:09:15;6.95;;;5.50;;
577;SDS011;275;48.492;9.214;2024-01-27T02:11:43;8.90;;;5.15;;
577;SDS011;275;48.492;9.214;2024-01-27T02:14:10;7.38;;;5.20;;
577;SDS011;275;48.492;9.214;2024-01-27T02:16:37;6.05;;;4.47;;
577;SDS011;275;48.492;9.214;2024-01-27T02:19:04;6.10;;;5.00;;
577;SDS011;275;48.492;9.214;2024-01-27T02:21:31;15.60;;;6.25;;
577;SDS011;275;48.492;9.214;2024-01-27T02:23:58;6.28;;;5.35;;
577;SDS011;275;48.492;9.214;2024-01-27T02:26:26;7.28;;;5.13;;
577;SDS011;275;48.492;9.214;2024-01-27T02:28:53;7.65;;;5.28;;
577;SDS011;275;48.492;9.214;2024-01-27T02:31:20;10.23;;;6.00;;
577;SDS011;275;48.492;9.214;2024-01-27T02:33:46;9.45;;;5.65;;
577;SDS011;275;48.492;9.214;2024-01-27T02:36:13;8.98;;;5.55;;
577;SDS011;275;48.492;9.214;2024-01-27T02:38:40;15.60;;;7.68;;
577;SDS011;275;48.492;9.214;2024-01-27T02:41:07;61.33;;;29.67;;
577;SDS011;275;48.492;9.214;2024-01-27T02:43:36;75.43;;;34.60;;
577;SDS011;275;48.492;9.214;2024-01-27T02:46:03;23.65;;;12.75;;
577;SDS011;275;48.492;9.214;2024-01-27T02:48:32;38.72;;;21.27;;
577;SDS011;275;48.492;9.214;2024-01-27T02:51:01;45.05;;;19.75;;
577;SDS011;275;48.492;9.214;2024-01-27T02:53:29;24.17;;;12.80;;
577;SDS011;275;48.492;9.214;2024-01-27T02:55:55;14.63;;;7.95;;
577;SDS011;275;48.492;9.214;2024-01-27T02:58:22;14.02;;;7.68;;
577;SDS011;275;48.492;9.214;2024-01-27T03:00:50;10.88;;;7.72;;
577;SDS011;275;48.492;9.214;2024-01-27T03:03:17;10.35;;;6.60;;
577;SDS011;275;48.492;9.214;2024-01-27T03:05:44;9.48;;;7.25;;
577;SDS011;275;48.492;9.214;2024-01-27T03:08:11;12.15;;;7.07;;
577;SDS011;275;48.492;9.214;2024-01-27T03:10:38;11.10;;;5.90;;
577;SDS011;275;48.492;9.214;2024-01-27T03:13:05;9.50;;;5.22;;
577;SDS011;275;48.492;9.214;2024-01-27T03:15:31;8.18;;;5.15;;
577;SDS011;275;48.492;9.214;2024-01-27T03:18:00;7.95;;;4.88;;
577;SDS011;275;48.492;9.214;2024-01-27T03:20:26;7.38;;;5.00;;
577;SDS011;275;48.492;9.214;2024-01-27T03:22:56;4.80;;;4.20;;
577;SDS011;275;48.492;9.214;2024-01-27T03:25:22;6.15;;;4.68;;
577;SDS011;275;48.492;9.214;2024-01-27T03:27:50;7.13;;;4.55;;
577;SDS011;275;48.492;9.214;2024-01-27T03:30:17;6.97;;;4.55;;
577;SDS011;275;48.492;9.214;2024-01-27T03:32:47;6.70;;;4.05;;
577;SDS011;275;48.492;9.214;2024-01-27T03:35:15;8.63;;;4.57;;
577;SDS011;275;48.492;9.214;2024-01-27T03:37:42;8.32;;;5.18;;
577;SDS011;275;48.492;9.214;2024-01-27T03:40:10;8.23;;;4.53;;
577;SDS011;275;48.492;9.214;2024-01-27T03:42:37;6.85;;;4.55;;
577;SDS011;275;48.492;9.214;2024-01-27T03:45:04;7.63;;;5.20;;
577;SDS011;275;48.492;9.214;2024-01-27T03:47:31;6.22;;;4.57;;
577;SDS011;275;48.492;9.214;2024-01-27T03:49:58;6.85;;;4.30;;
577;SDS011;275;48.492;9.214;2024-01-27T03:52:26;5.70;;;3.53;;
577;SDS011;275;48.492;9.214;2024-01-27T03:54:53;7.13;;;4.13;;
577;SDS011;275;48.492;9.214;2024-01-27T03:57:20;6.18;;;4.40;;
577;SDS011;275;48.492;9.214;2024-01-27T03:59:47;7.20;;;4.13;;
577;SDS011;275;48.492;9.214;2024-01-27T04:02:13;8.00;;;4.22;;
577;SDS011;275;48.492;9.214;2024-01-27T04:04:40;5.63;;;3.50;;
577;SDS011;275;48.492;9.214;2024-01-27T04:07:07;7.25;;;4.28;;
577;SDS011;275;48.492;9.214;2024-01-27T04:09:35;9.45;;;4.47;;
577;SDS011;275;48.492;9.214;2024-01-27T04:12:02;5.82;;;3.95;;
577;SDS011;275;48.492;9.214;2024-01-27T04:14:29;6.55;;;3.80;;
577;SDS011;275;48.492;9.214;2024-01-27T04:16:56;6.28;;;4.63;;
577;SDS011;275;48.492;9.214;2024-01-27T04:19:23;6.35;;;4.03;;
577;SDS011;275;48.492;9.214;2024-01-27T04:21:50;9.50;;;4.47;;
577;SDS011;275;48.492;9.214;2024-01-27T04:24:17;6.88;;;4.53;;
577;SDS011;275;48.492;9.214;2024-01-27T04:26:45;5.07;;;4.10;;
577;SDS011;275;48.492;9.214;2024-01-27T04:29:12;6.13;;;4.05;;
577;SDS011;275;48.492;9.214;2024-01-27T04:31:40;6.40;;;4.30;;
577;SDS011;275;48.492;9.214;2024-01-27T04:34:07;7.10;;;3.90;;
577;SDS011;275;48.492;9.214;2024-01-27T04:36:35;6.00;;;4.13;;
577;SDS011;275;48.492;9.214;2024-01-27T04:39:02;9.35;;;4.22;;
577;SDS011;275;48.492;9.214;2024-01-27T04:41:30;6.53;;;4.10;;
577;SDS011;275;48.492;9.214;2024-01-27T04:43:58;5.75;;;3.97;;
577;SDS011;275;48.492;9.214;2024-01-27T04:46:25;8.27;;;4.80;;
577;SDS011;275;48.492;9.214;2024-01-27T04:48:52;9.05;;;4.43;;
577;SDS011;275;48.492;9.214;2024-01-27T04:51:18;7.82;;;4.65;;
577;SDS011;275;48.492;9.214;2024-01-27T04:53:45;6.32;;;5.03;;
577;SDS011;275;48.492;9.214;2024-01-27T04:56:12;11.57;;;5.28;;
577;SDS011;275;48.492;9.214;2024-01-27T04:58:39;7.25;;;4.55;;
577;SDS011;275;48.492;9.214;2024-01-27T05:01:07;9.35;;;4.90;;
577;SDS011;275;48.492;9.214;2024-01-27T05:03:34;5.65;;;4.25;;
577;SDS011;275;48.492;9.214;2024-01-27T05:06:01;6.78;;;4.80;;
577;SDS011;275;48.492;9.214;2024-01-27T05:08:29;5.80;;;4.47;;
577;SDS011;275;48.492;9.214;2024-01-27T05:10:57;7.80;;;5.30;;
577;SDS011;275;48.492;9.214;2024-01-27T05:13:24;5.18;;;4.25;;
577;SDS011;275;48.492;9.214;2024-01-27T05:15:51;6.35;;;5.00;;
577;SDS011;275;48.492;9.214;2024-01-27T05:18:19;6.50;;;4.68;;
577;SDS011;275;48.492;9.214;2024-01-27T05:20:46;8.57;;;5.57;;
577;SDS011;275;48.492;9.214;2024-01-27T05:23:12;9.07;;;5.72;;
577;SDS011;275;48.492;9.214;2024-01-27T05:25:39;6.20;;;5.20;;
577;SDS011;275;48.492;9.214;2024-01-27T05:28:06;9.65;;;5.28;;
577;SDS011;275;48.492;9.214;2024-01-27T05:30:33;8.27;;;5.03;;
577;SDS011;275;48.492;9.214;2024-01-27T05:33:00;6.57;;;5.25;;
577;SDS011;275;48.492;9.214;2024-01-27T05:35:28;6.35;;;5.13;;
577;SDS011;275;48.492;9.214;2024-01-27T05:37:56;7.00;;;5.38;;
577;SDS011;275;48.492;9.214;2024-01-27T05:40:22;6.75;;;5.40;;
577;SDS011;275;48.492;9.214;2024-01-27T05:42:49;9.57;;;5.38;;
577;SDS011;275;48.492;9.214;2024-01-27T05:45:16;8.07;;;5.55;;
577;SDS011;275;48.492;9.214;2024-01-27T05:47:44;7.70;;;5.88;;
577;SDS011;275;48.492;9.214;2024-01-27T05:50:10;9.85;;;6.05;;
577;SDS011;275;48.492;9.214;2024-01-27T05:52:39;10.40;;;6.70;;
577;SDS011;275;48.492;9.214;2024-01-27T05:55:06;8.88;;;7.03;;
577;SDS011;275;48.492;9.214;2024-01-27T05:57:33;9.45;;;7.05;;
577;SDS011;275;48.492;9.214;2024-01-27T06:00:00;7.47;;;6.78;;
577;SDS011;275;48.492;9.214;2024-01-27T06:02:27;10.27;;;7.18;;
577;SDS011;275;48.492;9.214;2024-01-27T06:04:54;11.10;;;7.45;;
577;SDS011;275;48.492;9.214;2024-01-27T06:07:20;8.50;;;7.60;;
577;SDS011;275;48.492;9.214;2024-01-27T06:09:49;9.50;;;8.25;;
577;SDS011;275;48.492;9.214;2024-01-27T06:12:15;9.50;;;8.38;;
577;SDS011;275;48.492;9.214;2024-01-27T06:14:42;11.00;;;8.20;;
577;SDS011;275;48.492;9.214;2024-01-27T06:17:09;9.15;;;7.78;;
577;SDS011;275;48.492;9.214;2024-01-27T06:19:36;9.05;;;8.25;;
577;SDS011;275;48.492;9.214;2024-01-27T06:22:03;13.18;;;9.73;;
577;SDS011;275;48.492;9.214;2024-01-27T06:24:30;8.93;;;7.95;;
577;SDS011;275;48.492;9.214;2024-01-27T06:26:58;8.18;;;7.18;;
577;SDS011;275;48.492;9.214;2024-01-27T06:29:25;11.23;;;8.68;;
577;SDS011;275;48.492;9.214;2024-01-27T06:31:52;10.38;;;9.30;;
577;SDS011;275;48.492;9.214;2024-01-27T06:34:19;10.70;;;8.68;;
577;SDS011;275;48.492;9.214;2024-01-27T06:36:45;11.90;;;8.63;;
577;SDS011;275;48.492;9.214;2024-01-27T06:39:12;8.68;;;7.43;;
577;SDS011;275;48.492;9.214;2024-01-27T06:41:39;11.00;;;9.60;;
577;SDS011;275;48.492;9.214;2024-01-27T06:44:07;11.73;;;8.70;;
577;SDS011;275;48.492;9.214;2024-01-27T06:46:34;11.45;;;8.85;;
577;SDS011;275;48.492;9.214;2024-01-27T06:49:01;16.80;;;10.07;;
577;SDS011;275;48.492;9.214;2024-01-27T06:51:28;13.27;;;8.95;;
577;SDS011;275;48.492;9.214;2024-01-27T06:53:54;12.07;;;8.25;;
577;SDS011;275;48.492;9.214;2024-01-27T06:56:21;11.52;;;8.27;;
577;SDS011;275;48.492;9.214;2024-01-27T06:58:48;10.13;;;9.18;;
577;SDS011;275;48.492;9.214;2024-01-27T07:01:16;12.40;;;9.10;;
577;SDS011;275;48.492;9.214;2024-01-27T07:03:43;13.23;;;8.02;;
577;SDS011;275;48.492;9.214;2024-01-27T07:06:10;11.75;;;8.52;;
577;SDS011;275;48.492;9.214;2024-01-27T07:08:37;11.65;;;8.82;;
577;SDS011;275;48.492;9.214;2024-01-27T07:11:04;12.55;;;8.30;;
577;SDS011;275;48.492;9.214;2024-01-27T07:13:31;10.25;;;9.25;;
577;SDS011;275;48.492;9.214;2024-01-27T07:15:58;10.43;;;8.88;;
577;SDS011;275;48.492;9.214;2024-01-27T07:18:26;15.32;;;10.15;;
577;SDS011;275;48.492;9.214;2024-01-27T07:20:54;10.88;;;9.27;;
577;SDS011;275;48.492;9.214;2024-01-27T07:23:21;24.30;;;22.02;;
577;SDS011;275;48.492;9.214;2024-01-27T07:25:47;21.45;;;19.30;;
577;SDS011;275;48.492;9.214;2024-01-27T07:28:14;14.45;;;13.05;;
577;SDS011;275;48.492;9.214;2024-01-27T07:30:43;15.70;;;11.00;;
577;SDS011;275;48.492;9.214;2024-01-27T07:33:10;11.93;;;10.82;;
577;SDS011;275;48.492;9.214;2024-01-27T07:35:38;14.27;;;12.88;;
577;SDS011;275;48.492;9.214;2024-01-27T07:38:05;14.25;;;12.80;;
577;SDS011;275;48.492;9.214;2024-01-27T07:40:33;13.77;;;12.20;;
577;SDS011;275;48.492;9.214;2024-01-27T07:43:00;15.82;;;12.05;;
577;SDS011;275;48.492;9.214;2024-01-27T07:45:27;11.80;;;10.70;;
577;SDS011;275;48.492;9.214;2024-01-27T07:47:54;13.30;;;10.80;;
577;SDS011;275;48.492;9.214;2024-01-27T07:50:21;13.18;;;11.65;;
577;SDS011;275;48.492;9.214;2024-01-27T07:52:50;16.95;;;11.48;;
577;SDS011;275;48.492;9.214;2024-01-27T07:55:17;15.60;;;10.63;;
577;SDS011;275;48.492;9.214;2024-01-27T07:57:43;12.25;;;10.63;;
577;SDS011;275;48.492;9.214;2024-01-27T08:00:11;15.25;;;12.95;;
577;SDS011;275;48.492;9.214;2024-01-27T08:02:38;16.25;;;13.48;;
577;SDS011;275;48.492;9.214;2024-01-27T08:05:05;12.73;;;11.52;;
577;SDS011;275;48.492;9.214;2024-01-27T08:07:32;12.52;;;10.90;;
577;SDS011;275;48.492;9.214;2024-01-27T08:10:00;13.63;;;12.23;;
577;SDS011;275;48.492;9.214;2024-01-27T08:12:29;14.10;;;12.70;;
577;SDS011;275;48.492;9.214;2024-01-27T08:14:55;16.05;;;12.25;;
577;SDS011;275;48.492;9.214;2024-01-27T08:17:22;12.27;;;11.05;;
577;SDS011;275;48.492;9.214;2024-01-27T08:19:50;12.93;;;11.10;;
577;SDS011;275;48.492;9.214;2024-01-27T08:22:17;13.15;;;10.68;;
577;SDS011;275;48.492;9.214;2024-01-27T08:24:44;14.25;;;11.07;;
577;SDS011;275;48.492;9.214;2024-01-27T08:27:12;15.77;;;12.85;;
577;SDS011;275;48.492;9.214;2024-01-27T08:29:39;18.08;;;16.25;;
577;SDS011;275;48.492;9.214;2024-01-27T08:32:06;16.63;;;13.57;;
577;SDS011;275;48.492;9.214;2024-01-27T08:34:33;13.43;;;12.25;;
577;SDS011;275;48.492;9.214;2024-01-27T08:37:00;14.00;;;12.70;;
577;SDS011;275;48.492;9.214;2024-01-27T08:39:27;17.23;;;14.15;;
577;SDS011;275;48.492;9.214;2024-01-27T08:41:54;16.48;;;15.07;;
577;SDS011;275;48.492;9.214;2024-01-27T08:44:23;17.42;;;15.82;;
577;SDS011;275;48.492;9.214;2024-01-27T08:46:49;16.40;;;14.90;;
577;SDS011;275;48.492;9.214;2024-01-27T08:49:16;16.30;;;14.77;;
577;SDS011;275;48.492;9.214;2024-01-27T08:51:43;17.60;;;16.10;;
577;SDS011;275;48.492;9.214;2024-01-27T08:54:10;16.73;;;15.23;;
577;SDS011;275;48.492;9.214;2024-01-27T08:56:38;16.60;;;15.10;;
577;SDS011;275;48.492;9.214;2024-01-27T08:59:06;15.48;;;14.13;;
577;SDS011;275;48.492;9.214;2024-01-27T09:01:34;16.85;;;15.30;;
577;SDS011;275;48.492;9.214;2024-01-27T09:04:01;16.45;;;14.73;;
577;SDS011;275;48.492;9.214;2024-01-27T09:06:27;17.13;;;15.57;;
577;SDS011;275;48.492;9.214;2024-01-27T09:08:54;16.65;;;15.05;;
577;SDS011;275;48.492;9.214;2024-01-27T09:11:21;17.00;;;15.50;;
577;SDS011;275;48.492;9.214;2024-01-27T09:13:52;17.90;;;16.40;;
577;SDS011;275;48.492;9.214;2024-01-27T09:16:18;17.63;;;16.02;;
577;SDS011;275;48.492;9.214;2024-01-27T09:18:47;18.75;;;17.10;;
577;SDS011;275;48.492;9.214;2024-01-27T09:21:15;18.50;;;16.83;;
577;SDS011;275;48.492;9.214;2024-01-27T09:23:45;21.45;;;19.30;;
577;SDS011;275;48.492;9.214;2024-01-27T09:26:12;21.33;;;19.33;;
577;SDS011;275;48.492;9.214;2024-01-27T09:28:40;21.58;;;19.75;;
577;SDS011;275;48.492;9.214;2024-01-27T09:31:08;20.00;;;18.20;;
577;SDS011;275;48.492;9.214;2024-01-27T09:33:36;19.85;;;18.20;;
577;SDS011;275;48.492;9.214;2024-01-27T09:36:04;18.02;;;16.52;;
577;SDS011;275;48.492;9.214;2024-01-27T09:38:31;16.83;;;15.35;;
577;SDS011;275;48.492;9.214;2024-01-27T09:40:58;17.50;;;15.90;;
577;SDS011;275;48.492;9.214;2024-01-27T09:43:25;17.45;;;15.82;;
577;SDS011;275;48.492;9.214;2024-01-27T09:45:55;16.10;;;14.70;;
577;SDS011;275;48.492;9.214;2024-01-27T09:48:22;15.32;;;13.93;;
577;SDS011;275;48.492;9.214;2024-01-27T09:50:50;16.20;;;14.60;;
577;SDS011;275;48.492;9.214;2024-01-27T09:53:19;14.82;;;13.52;;
577;SDS011;275;48.492;9.214;2024-01-27T09:55:46;13.80;;;12.60;;
577;SDS011;275;48.492;9.214;2024-01-27T09:58:14;14.82;;;13.52;;
577;SDS011;275;48.492;9.214;2024-01-27T10:00:41;13.30;;;12.20;;
577;SDS011;275;48.492;9.214;2024-01-27T10:03:08;12.48;;;11.27;;
577;SDS011;275;48.492;9.214;2024-01-27T10:05:36;13.50;;;12.20;;
577;SDS011;275;48.492;9.214;2024-01-27T10:08:05;13.60;;;12.40;;
577;SDS011;275;48.492;9.214;2024-01-27T10:10:34;14.25;;;13.02;;
577;SDS011;275;48.492;9.214;2024-01-27T10:13:01;12.30;;;11.15;;
577;SDS011;275;48.492;9.214;2024-01-27T10:15:31;13.70;;;12.50;;
577;SDS011;275;48.492;9.214;2024-01-27T10:18:04;13.75;;;12.45;;
577;SDS011;275;48.492;9.214;2024-01-27T10:20:31;14.25;;;12.85;;
577;SDS011;275;48.492;9.214;2024-01-27T10:22:59;12.85;;;11.45;;
577;SDS011;275;48.492;9.214;2024-01-27T10:25:38;13.73;;;12.60;;
577;SDS011;275;48.492;9.214;2024-01-27T10:28:05;12.02;;;11.00;;
577;SDS011;275;48.492;9.214;2024-01-27T10:30:32;12.13;;;11.13;;
577;SDS011;275;48.492;9.214;2024-01-27T10:32:59;12.75;;;11.32;;
577;SDS011;275;48.492;9.214;2024-01-27T10:35:26;15.18;;;13.70;;
577;SDS011;275;48.492;9.214;2024-01-27T10:37:53;13.63;;;12.43;;
577;SDS011;275;48.492;9.214;2024-01-27T10:40:21;13.95;;;12.60;;
577;SDS011;275;48.492;9.214;2024-01-27T10:42:53;16.02;;;14.52;;
577;SDS011;275;48.492;9.214;2024-01-27T10:45:29;14.98;;;13.57;;
577;SDS011;275;48.492;9.214;2024-01-27T10:48:02;13.85;;;12.52;;
577;SDS011;275;48.492;9.214;2024-01-27T10:50:29;13.43;;;12.32;;
577;SDS011;275;48.492;9.214;2024-01-27T10:52:57;14.52;;;13.00;;
577;SDS011;275;48.492;9.214;2024-01-27T10:55:26;13.18;;;11.75;;
577;SDS011;275;48.492;9.214;2024-01-27T10:57:55;13.10;;;11.70;;
577;SDS011;275;48.492;9.214;2024-01-27T11:00:27;12.38;;;11.15;;
577;SDS011;275;48.492;9.214;2024-01-27T11:02:54;14.88;;;13.48;;
577;SDS011;275;48.492;9.214;2024-01-27T11:05:25;13.75;;;12.55;;
577;SDS011;275;48.492;9.214;2024-01-27T11:07:53;14.80;;;12.73;;
577;SDS011;275;48.492;9.214;2024-01-27T11:10:21;13.02;;;11.85;;
577;SDS011;275;48.492;9.214;2024-01-27T11:12:48;13.68;;;12.38;;
577;SDS011;275;48.492;9.214;2024-01-27T11:15:17;13.40;;;12.30;;
577;SDS011;275;48.492;9.214;2024-01-27T11:17:44;14.52;;;13.10;;
577;SDS011;275;48.492;9.214;2024-01-27T11:20:11;14.32;;;12.85;;
577;SDS011;275;48.492;9.214;2024-01-27T11:22:41;13.73;;;12.27;;
577;SDS011;275;48.492;9.214;2024-01-27T11:25:14;13.90;;;12.60;;
577;SDS011;275;48.492;9.214;2024-01-27T11:27:42;15.00;;;12.98;;
577;SDS011;275;48.492;9.214;2024-01-27T11:30:24;13.93;;;12.63;;
577;SDS011;275;48.492;9.214;2024-01-27T11:32:54;14.10;;;13.00;;
577;SDS011;275;48.492;9.214;2024-01-27T11:35:21;14.18;;;12.75;;
577;SDS011;275;48.492;9.214;2024-01-27T11:37:48;14.13;;;12.93;;
577;SDS011;275;48.492;9.214;2024-01-27T11:40:15;14.32;;;13.02;;
577;SDS011;275;48.492;9.214;2024-01-27T11:42:42;13.30;;;12.05;;
577;SDS011;275;48.492;9.214;2024-01-27T11:45:09;13.68;;;12.38;;
577;SDS011;275;48.492;9.214;2024-01-27T11:47:38;14.57;;;13.13;;
577;SDS011;275;48.492;9.214;2024-01-27T11:50:05;13.20;;;11.75;;
577;SDS011;275;48.492;9.214;2024-01-27T11:52:33;13.48;;;12.07;;
577;SDS011;275;48.492;9.214;2024-01-27T11:55:00;15.55;;;13.95;;
577;SDS011;275;48.492;9.214;2024-01-27T11:57:27;14.38;;;13.07;;
577;SDS011;275;48.492;9.214;2024-01-27T11:59:54;14.65;;;12.65;;
577;SDS011;275;48.492;9.214;2024-01-27T12:02:21;13.77;;;12.45;;
577;SDS011;275;48.492;9.214;2024-01-27T12:04:49;14.77;;;13.43;;
577;SDS011;275;48.492;9.214;2024-01-27T12:07:17;14.10;;;12.77;;
577;SDS011;275;48.492;9.214;2024-01-27T12:09:46;14.68;;;13.40;;
577;SDS011;275;48.492;9.214;2024-01-27T12:12:15;18.50;;;16.60;;
577;SDS011;275;48.492;9.214;2024-01-27T12:14:44;20.30;;;18.30;;
577;SDS011;275;48.492;9.214;2024-01-27T12:17:12;18.10;;;16.50;;
577;SDS011;275;48.492;9.214;2024-01-27T12:19:39;18.65;;;16.90;;
577;SDS011;275;48.492;9.214;2024-01-27T12:22:21;18.77;;;16.88;;
577;SDS011;275;48.492;9.214;2024-01-27T12:24:49;17.85;;;16.25;;
577;SDS011;275;48.492;9.214;2024-01-27T12:27:16;18.80;;;16.90;;
577;SDS011;275;48.492;9.214;2024-01-27T12:29:43;17.20;;;15.50;;
577;SDS011;275;48.492;9.214;2024-01-27T12:32:12;18.58;;;16.88;;
577;SDS011;275;48.492;9.214;2024-01-27T12:34:39;15.65;;;14.15;;
577;SDS011;275;48.492;9.214;2024-01-27T12:37:07;17.15;;;15.35;;
577;SDS011;275;48.492;9.214;2024-01-27T12:39:36;12.82;;;11.50;;
577;SDS011;275;48.492;9.214;2024-01-27T12:42:03;11.82;;;10.20;;
577;SDS011;275;48.492;9.214;2024-01-27T12:44:31;12.18;;;10.13;;
577;SDS011;275;48.492;9.214;2024-01-27T12:46:57;12.00;;;10.77;;
577;SDS011;275;48.492;9.214;2024-01-27T12:49:25;11.35;;;10.25;;
577;SDS011;275;48.492;9.214;2024-01-27T12:51:52;10.55;;;9.38;;
577;SDS011;275;48.492;9.214;2024-01-27T12:54:19;11.85;;;7.85;;
577;SDS011;275;48.492;9.214;2024-01-27T12:56:47;8.55;;;7.07;;
577;SDS011;275;48.492;9.214;2024-01-27T12:59:14;9.53;;;6.40;;
577;SDS011;275;48.492;9.214;2024-01-27T13:01:41;8.57;;;7.30;;
577;SDS011;275;48.492;9.214;2024-01-27T13:04:08;9.53;;;6.30;;
577;SDS011;275;48.492;9.214;2024-01-27T13:06:34;9.03;;;6.90;;
577;SDS011;275;48.492;9.214;2024-01-27T13:09:02;8.67;;;6.90;;
577;SDS011;275;48.492;9.214;2024-01-27T13:11:29;8.30;;;7.17;;
577;SDS011;275;48.492;9.214;2024-01-27T13:13:57;8.30;;;6.50;;
577;SDS011;275;48.492;9.214;2024-01-27T13:16:24;9.47;;;6.67;;
577;SDS011;275;48.492;9.214;2024-01-27T13:18:51;7.47;;;6.50;;
577;SDS011;275;48.492;9.214;2024-01-27T13:21:18;9.23;;;6.90;;
577;SDS011;275;48.492;9.214;2024-01-27T13:23:45;10.40;;;7.40;;
577;SDS011;275;48.492;9.214;2024-01-27T13:26:11;10.10;;;7.23;;
577;SDS011;275;48.492;9.214;2024-01-27T13:28:38;10.50;;;7.33;;
577;SDS011;275;48.492;9.214;2024-01-27T13:31:06;11.90;;;7.53;;
577;SDS011;275;48.492;9.214;2024-01-27T13:33:33;11.67;;;6.70;;
577;SDS011;275;48.492;9.214;2024-01-27T13:36:00;8.83;;;6.80;;
577;SDS011;275;48.492;9.214;2024-01-27T13:38:27;8.27;;;6.47;;
577;SDS011;275;48.492;9.214;2024-01-27T13:40:54;10.17;;;6.90;;
577;SDS011;275;48.492;9.214;2024-01-27T13:43:21;7.20;;;6.23;;
577;SDS011;275;48.492;9.214;2024-01-27T13:45:48;8.53;;;5.50;;
577;SDS011;275;48.492;9.214;2024-01-27T13:48:17;8.23;;;5.67;;
577;SDS011;275;48.492;9.214;2024-01-27T13:50:44;10.77;;;6.40;;
577;SDS011;275;48.492;9.214;2024-01-27T13:53:11;10.93;;;5.80;;
577;SDS011;275;48.492;9.214;2024-01-27T13:55:38;12.27;;;6.07;;
577;SDS011;275;48.492;9.214;2024-01-27T13:58:05;7.83;;;5.73;;
577;SDS011;275;48.492;9.214;2024-01-27T14:00:32;8.63;;;5.83;;
577;SDS011;275;48.492;9.214;2024-01-27T14:02:59;8.97;;;5.73;;
577;SDS011;275;48.492;9.214;2024-01-27T14:05:27;6.83;;;5.90;;
577;SDS011;275;48.492;9.214;2024-01-27T14:07:54;10.33;;;6.20;;
577;SDS011;275;48.492;9.214;2024-01-27T14:10:21;9.13;;;5.90;;
577;SDS011;275;48.492;9.214;2024-01-27T14:12:49;9.30;;;6.00;;
577;SDS011;275;48.492;9.214;2024-01-27T14:15:16;8.70;;;6.10;;
577;SDS011;275;48.492;9.214;2024-01-27T14:17:43;7.33;;;5.80;;
577;SDS011;275;48.492;9.214;2024-01-27T14:20:11;11.87;;;6.03;;
577;SDS011;275;48.492;9.214;2024-01-27T14:22:39;7.70;;;5.20;;
577;SDS011;275;48.492;9.214;2024-01-27T14:25:06;10.03;;;5.90;;
577;SDS011;275;48.492;9.214;2024-01-27T14:27:34;10.13;;;6.63;;
577;SDS011;275;48.492;9.214;2024-01-27T14:30:01;9.50;;;6.60;;
577;SDS011;275;48.492;9.214;2024-01-27T14:32:29;10.73;;;6.00;;
577;SDS011;275;48.492;9.214;2024-01-27T14:34:56;10.10;;;6.40;;
577;SDS011;275;48.492;9.214;2024-01-27T14:37:22;9.40;;;6.27;;
577;SDS011;275;48.492;9.214;2024-01-27T14:39:52;9.17;;;5.30;;
577;SDS011;275;48.492;9.214;2024-01-27T14:42:19;11.80;;;5.50;;
577;SDS011;275;48.492;9.214;2024-01-27T14:44:45;12.27;;;5.97;;
577;SDS011;275;48.492;9.214;2024-01-27T14:47:14;6.63;;;5.03;;
577;SDS011;275;48.492;9.214;2024-01-27T14:49:41;12.40;;;5.30;;
577;SDS011;275;48.492;9.214;2024-01-27T14:52:10;12.33;;;6.23;;
577;SDS011;275;48.492;9.214;2024-01-27T14:54:37;8.37;;;5.67;;
577;SDS011;275;48.492;9.214;2024-01-27T14:57:06;12.17;;;7.10;;
577;SDS011;275;48.492;9.214;2024-01-27T14:59:34;10.40;;;6.53;;
577;SDS011;275;48.492;9.214;2024-01-27T15:02:01;11.63;;;7.23;;
577;SDS011;275;48.492;9.214;2024-01-27T15:04:28;9.90;;;6.10;;
577;SDS011;275;48.492;9.214;2024-01-27T15:06:55;10.30;;;6.90;;
577;SDS011;275;48.492;9.214;2024-01-27T15:09:22;12.23;;;7.47;;
577;SDS011;275;48.492;9.214;2024-01-27T15:11:49;9.60;;;6.63;;
577;SDS011;275;48.492;9.214;2024-01-27T15:14:17;9.40;;;6.78;;
577;SDS011;275;48.492;9.214;2024-01-27T15:16:45;10.02;;;7.05;;
577;SDS011;275;48.492;9.214;2024-01-27T15:19:11;13.70;;;8.15;;
577;SDS011;275;48.492;9.214;2024-01-27T15:21:38;8.85;;;7.28;;
577;SDS011;275;48.492;9.214;2024-01-27T15:24:05;11.63;;;7.05;;
577;SDS011;275;48.492;9.214;2024-01-27T15:26:32;9.60;;;7.97;;
577;SDS011;275;48.492;9.214;2024-01-27T15:28:59;10.32;;;8.30;;
577;SDS011;275;48.492;9.214;2024-01-27T15:31:27;11.02;;;8.75;;